Time;durP1;ratioP1;P1;durP2;ratioP2;P2;SDS_P1;SDS_P2;PMS_P1;PMS_P2;Temp;Humidity;BMP_temperature;BMP_pressure;BME280_temperature;BME280_humidity;BME280_pressure;Samples;Min_cycle;Max_cycle;Signal;HPM_P1;HPM_P2
2023/03/17 00:00:48;;;;;;;1.00;1.00;;;7.00;99.90;;;;;;5039829;28;20036;-77
2023/03/17 00:03:24;;;;;;;1.00;1.00;;;7.00;99.90;;;;;;5042842;28;20090;-77
2023/03/17 00:05:52;;;;;;;1.10;1.10;;;7.00;99.90;;;;;;5060639;28;20052;-77
2023/03/17 00:08:18;;;;;;;1.02;1.02;;;7.00;99.90;;;;;;5021795;28;20088;-77
2023/03/17 00:10:43;;;;;;;1.10;1.10;;;7.00;99.90;;;;;;5056068;28;20122;-77
2023/03/17 00:13:11;;;;;;;1.00;1.00;;;6.90;99.90;;;;;;5061216;28;20106;-77
2023/03/17 00:15:37;;;;;;;1.10;1.10;;;7.00;99.90;;;;;;5058933;28;20060;-77
2023/03/17 00:18:03;;;;;;;1.00;1.00;;;7.00;99.90;;;;;;5060639;28;20101;-77
2023/03/17 00:20:31;;;;;;;1.00;1.00;;;7.00;99.90;;;;;;5037666;28;20051;-77
2023/03/17 00:23:03;;;;;;;1.00;1.00;;;7.00;99.90;;;;;;5059816;28;20071;-77
2023/03/17 00:25:33;;;;;;;1.00;1.00;;;7.00;99.90;;;;;;5060767;28;20119;-77
2023/03/17 00:28:02;;;;;;;1.10;1.10;;;7.10;99.90;;;;;;5054244;28;20118;-77
2023/03/17 00:30:28;;;;;;;1.00;1.00;;;7.20;99.90;;;;;;5042796;28;20127;-77
2023/03/17 00:32:56;;;;;;;1.05;1.05;;;7.20;99.90;;;;;;5054609;28;20048;-77
2023/03/17 00:35:24;;;;;;;1.00;1.00;;;7.20;99.90;;;;;;5066503;28;20874;-77
2023/03/17 00:37:52;;;;;;;1.00;1.00;;;7.20;99.90;;;;;;5074521;28;20044;-77
2023/03/17 00:40:24;;;;;;;1.02;1.02;;;7.20;99.90;;;;;;5073281;28;20046;-77
2023/03/17 00:42:52;;;;;;;1.00;1.00;;;7.20;99.90;;;;;;5071253;28;20054;-77
2023/03/17 00:45:20;;;;;;;1.00;1.00;;;7.10;99.90;;;;;;5055095;28;20117;-77
2023/03/17 00:47:47;;;;;;;1.00;1.00;;;7.10;99.90;;;;;;5071193;28;20043;-77
2023/03/17 00:50:21;;;;;;;1.10;1.10;;;7.20;99.90;;;;;;5070195;28;20048;-77
2023/03/17 00:52:47;;;;;;;;;;;7.20;99.90;;;;;;5074496;28;20071;-77
2023/03/17 00:55:14;;;;;;;1.23;1.23;;;7.10;99.90;;;;;;5074467;28;19924;-77
2023/03/17 00:57:40;;;;;;;1.10;1.10;;;7.10;99.90;;;;;;5072914;28;20047;-77
2023/03/17 01:00:16;;;;;;;1.15;1.15;;;7.00;99.90;;;;;;5073624;28;20048;-77
2023/03/17 01:02:43;;;;;;;1.10;1.10;;;7.10;99.90;;;;;;5071239;28;20105;-77
2023/03/17 01:05:09;;;;;;;1.00;1.00;;;7.00;99.90;;;;;;5073182;28;20040;-77
2023/03/17 01:07:36;;;;;;;1.05;1.05;;;7.00;99.90;;;;;;5072094;28;20113;-77
2023/03/17 01:10:02;;;;;;;1.10;1.10;;;7.00;99.90;;;;;;5054092;28;20102;-77
2023/03/17 01:12:28;;;;;;;1.08;1.08;;;6.90;99.90;;;;;;5072052;28;20047;-77
2023/03/17 01:14:54;;;;;;;1.10;1.10;;;6.80;99.90;;;;;;5056204;28;20054;-77
2023/03/17 01:17:20;;;;;;;1.10;1.10;;;6.90;99.90;;;;;;5053900;28;20047;-77
2023/03/17 01:19:46;;;;;;;1.00;1.00;;;7.00;99.90;;;;;;5054389;28;20490;-78
2023/03/17 01:22:12;;;;;;;1.10;1.10;;;6.90;99.90;;;;;;5073631;28;20489;-77
2023/03/17 01:24:38;;;;;;;1.00;1.00;;;6.90;99.90;;;;;;5056359;28;20139;-77
2023/03/17 01:27:05;;;;;;;1.00;1.00;;;6.90;99.90;;;;;;5064855;28;20071;-77
2023/03/17 01:29:32;;;;;;;1.08;1.08;;;6.90;99.90;;;;;;5070822;28;20152;-77
2023/03/17 01:31:58;;;;;;;1.00;1.00;;;6.90;99.90;;;;;;5073717;28;20036;-77
2023/03/17 01:34:24;;;;;;;1.10;1.10;;;6.90;99.90;;;;;;5075905;28;20039;-77
2023/03/17 01:36:49;;;;;;;1.02;1.02;;;6.80;99.90;;;;;;5074929;28;20070;-77
2023/03/17 01:39:15;;;;;;;1.00;1.00;;;6.80;99.90;;;;;;5073715;28;20086;-77
2023/03/17 01:41:41;;;;;;;1.10;1.10;;;6.80;99.90;;;;;;5072683;28;20039;-77
2023/03/17 01:44:17;;;;;;;1.02;1.02;;;6.80;99.90;;;;;;5073847;28;20038;-77
2023/03/17 01:46:44;;;;;;;1.00;1.00;;;6.70;99.90;;;;;;5057879;28;20117;-77
2023/03/17 01:49:35;;;;;;;1.10;1.10;;;6.70;99.90;;;;;;5054303;28;20155;-77
2023/03/17 01:52:07;;;;;;;1.13;1.13;;;6.70;99.90;;;;;;5053636;28;20463;-77
2023/03/17 01:54:49;;;;;;;1.20;1.20;;;6.60;99.90;;;;;;5056228;28;20040;-77
2023/03/17 01:57:17;;;;;;;1.08;1.08;;;6.70;99.90;;;;;;5073564;28;20051;-77
2023/03/17 01:59:50;;;;;;;1.08;1.08;;;6.70;99.90;;;;;;5050492;28;20555;-77
2023/03/17 02:02:21;;;;;;;1.00;1.00;;;6.70;99.90;;;;;;5068319;28;20703;-77
2023/03/17 02:04:48;;;;;;;0.98;0.98;;;6.80;99.90;;;;;;5053504;28;20074;-77
2023/03/17 02:07:14;;;;;;;1.10;1.10;;;6.80;99.90;;;;;;5055246;28;20059;-77
2023/03/17 02:09:39;;;;;;;1.08;1.08;;;6.80;99.90;;;;;;5053658;28;20044;-77
2023/03/17 02:12:06;;;;;;;1.00;1.00;;;6.80;99.90;;;;;;5069033;28;20051;-77
2023/03/17 02:14:33;;;;;;;1.00;1.00;;;6.80;99.90;;;;;;5070902;28;20043;-77
2023/03/17 02:16:58;;;;;;;1.10;1.10;;;6.80;99.90;;;;;;5072569;28;20121;-77
2023/03/17 02:19:24;;;;;;;1.10;1.10;;;6.80;99.90;;;;;;5070472;28;20127;-77
2023/03/17 02:21:53;;;;;;;1.00;1.00;;;6.70;99.90;;;;;;5072067;28;20040;-77
2023/03/17 02:24:22;;;;;;;1.10;1.10;;;6.70;99.90;;;;;;5070313;28;20119;-77
2023/03/17 02:26:50;;;;;;;1.00;1.00;;;6.70;99.90;;;;;;5054961;28;20055;-77
2023/03/17 02:29:15;;;;;;;1.10;1.10;;;6.70;99.90;;;;;;5055260;28;20109;-77
2023/03/17 02:31:43;;;;;;;1.00;1.00;;;6.60;99.90;;;;;;5072692;28;20071;-77
2023/03/17 02:34:09;;;;;;;1.00;1.00;;;6.60;99.90;;;;;;5055237;28;20052;-77
2023/03/17 02:36:35;;;;;;;1.10;1.10;;;6.60;99.90;;;;;;5070693;28;20048;-77
2023/03/17 02:39:01;;;;;;;1.00;1.00;;;6.60;99.90;;;;;;5070057;28;20052;-77
2023/03/17 02:41:27;;;;;;;1.00;1.00;;;6.50;99.90;;;;;;5070562;28;20048;-77
2023/03/17 02:43:53;;;;;;;1.00;1.00;;;6.60;99.90;;;;;;5072610;28;20698;-77
2023/03/17 02:46:19;;;;;;;1.00;1.00;;;6.50;99.90;;;;;;5072833;28;20028;-77
2023/03/17 02:48:45;;;;;;;1.00;1.00;;;6.50;99.90;;;;;;5075534;28;20067;-77
2023/03/17 02:51:11;;;;;;;1.00;1.00;;;6.40;99.90;;;;;;5070254;28;20763;-77
2023/03/17 02:53:37;;;;;;;1.10;1.10;;;6.40;99.90;;;;;;5053918;28;20040;-77
2023/03/17 02:56:03;;;;;;;1.00;1.00;;;6.40;99.90;;;;;;5055348;28;20110;-77
2023/03/17 02:58:29;;;;;;;1.05;1.05;;;6.40;99.90;;;;;;5053580;28;20091;-77
2023/03/17 03:00:55;;;;;;;1.00;1.00;;;6.30;99.90;;;;;;5053373;28;20048;-77
2023/03/17 03:03:21;;;;;;;1.00;1.00;;;6.30;99.90;;;;;;5055062;28;20616;-77
2023/03/17 03:05:46;;;;;;;1.08;1.08;;;6.20;99.90;;;;;;5054580;28;20117;-77
2023/03/17 03:08:12;;;;;;;1.10;1.10;;;6.10;99.90;;;;;;5071493;28;20493;-77
2023/03/17 03:10:38;;;;;;;1.10;1.10;;;6.10;99.90;;;;;;5052034;28;20600;-77
2023/03/17 03:13:03;;;;;;;1.10;1.10;;;6.00;99.90;;;;;;5072322;28;20047;-77
2023/03/17 03:15:29;;;;;;;1.00;1.00;;;6.00;99.90;;;;;;5053576;28;20043;-77
2023/03/17 03:17:55;;;;;;;1.10;1.10;;;6.00;99.90;;;;;;5073693;28;20056;-77
2023/03/17 03:20:20;;;;;;;1.10;1.10;;;6.00;99.90;;;;;;5071055;28;20085;-77
2023/03/17 03:22:46;;;;;;;1.10;1.10;;;6.00;99.90;;;;;;5072099;28;20464;-77
2023/03/17 03:25:12;;;;;;;1.00;1.00;;;6.00;99.90;;;;;;5058394;28;20052;-77
2023/03/17 03:27:38;;;;;;;1.00;1.00;;;6.00;99.90;;;;;;5071840;28;20445;-77
2023/03/17 03:30:06;;;;;;;1.10;1.10;;;6.00;99.90;;;;;;5056811;28;20048;-77
2023/03/17 03:32:32;;;;;;;1.02;1.02;;;6.00;99.90;;;;;;5078126;28;20575;-77
2023/03/17 03:34:58;;;;;;;1.00;1.00;;;6.10;99.90;;;;;;5076849;28;20072;-77
2023/03/17 03:37:24;;;;;;;1.00;1.00;;;6.10;99.90;;;;;;5059790;28;20135;-77
2023/03/17 03:39:50;;;;;;;0.98;0.98;;;6.10;99.90;;;;;;5073861;28;20052;-77
2023/03/17 03:42:16;;;;;;;1.02;1.02;;;6.10;99.90;;;;;;5058130;28;20040;-77
2023/03/17 03:44:42;;;;;;;0.90;0.90;;;6.10;99.90;;;;;;5078492;28;20039;-77
2023/03/17 03:47:08;;;;;;;0.90;0.90;;;6.20;99.90;;;;;;5075207;28;20041;-77
2023/03/17 03:49:34;;;;;;;1.00;1.00;;;6.20;99.90;;;;;;5056546;28;20040;-77
2023/03/17 03:52:00;;;;;;;0.90;0.90;;;6.20;99.90;;;;;;5056719;28;20057;-76
2023/03/17 03:54:25;;;;;;;0.85;0.85;;;6.20;99.90;;;;;;5075692;28;20040;-77
2023/03/17 03:56:51;;;;;;;0.90;0.90;;;6.20;99.90;;;;;;5077706;28;20046;-77
2023/03/17 03:59:17;;;;;;;0.90;0.90;;;6.20;99.90;;;;;;5072058;28;20217;-77
2023/03/17 04:01:43;;;;;;;1.00;1.00;;;6.20;99.90;;;;;;5057448;28;20056;-77
2023/03/17 04:04:08;;;;;;;0.85;0.85;;;6.20;99.90;;;;;;5039482;28;20044;-77
2023/03/17 04:06:34;;;;;;;0.90;0.90;;;6.10;99.90;;;;;;5075190;28;20051;-77
2023/03/17 04:09:00;;;;;;;1.00;1.00;;;6.20;99.90;;;;;;5073676;28;20075;-77
2023/03/17 04:11:26;;;;;;;1.00;1.00;;;6.20;99.90;;;;;;5055016;28;20062;-76
2023/03/17 04:13:51;;;;;;;0.90;0.90;;;6.20;99.90;;;;;;5076631;28;20040;-77
2023/03/17 04:16:17;;;;;;;0.90;0.90;;;6.20;99.90;;;;;;5076684;28;20063;-76
2023/03/17 04:18:43;;;;;;;0.90;0.90;;;6.20;99.90;;;;;;5058159;28;20044;-77
2023/03/17 04:21:09;;;;;;;0.90;0.90;;;6.30;99.90;;;;;;5073733;28;20148;-77
2023/03/17 04:23:35;;;;;;;0.90;0.90;;;6.20;99.90;;;;;;5057663;28;20506;-77
2023/03/17 04:26:01;;;;;;;0.90;0.90;;;6.20;99.90;;;;;;5058791;28;20497;-77
2023/03/17 04:28:26;;;;;;;0.90;0.90;;;6.20;99.90;;;;;;5074940;28;20500;-77
2023/03/17 04:30:52;;;;;;;0.90;0.90;;;6.30;99.90;;;;;;5073190;28;20150;-77
2023/03/17 04:33:19;;;;;;;0.90;0.90;;;6.40;99.90;;;;;;5075586;28;20046;-77
2023/03/17 04:35:45;;;;;;;0.95;0.95;;;6.30;99.90;;;;;;5076689;28;20051;-77
2023/03/17 04:38:12;;;;;;;0.90;0.90;;;6.30;99.90;;;;;;5077427;28;20529;-77
2023/03/17 04:40:37;;;;;;;0.90;0.90;;;6.30;99.90;;;;;;5071076;28;20044;-76
2023/03/17 04:43:03;;;;;;;0.90;0.90;;;6.30;99.90;;;;;;5076521;28;21828;-77
2023/03/17 04:45:29;;;;;;;0.90;0.90;;;6.30;99.90;;;;;;5060536;28;20170;-76
2023/03/17 04:47:54;;;;;;;1.00;1.00;;;6.30;99.90;;;;;;5076731;28;20132;-77
2023/03/17 04:50:20;;;;;;;0.90;0.90;;;6.30;99.90;;;;;;5056742;28;20113;-77
2023/03/17 04:52:46;;;;;;;0.90;0.90;;;6.30;99.90;;;;;;5056577;28;20076;-76
2023/03/17 04:55:11;;;;;;;1.00;1.00;;;6.30;99.90;;;;;;5072111;28;20040;-77
2023/03/17 04:57:38;;;;;;;0.98;0.98;;;6.30;99.90;;;;;;5056928;28;20048;-77
2023/03/17 05:00:05;;;;;;;0.90;0.90;;;6.40;99.90;;;;;;5073737;28;20121;-76
2023/03/17 05:02:30;;;;;;;0.85;0.85;;;6.40;99.90;;;;;;5057137;28;20088;-76
2023/03/17 05:04:56;;;;;;;0.90;0.90;;;6.40;99.90;;;;;;5075349;28;20152;-77
2023/03/17 05:07:22;;;;;;;0.80;0.80;;;6.40;99.90;;;;;;5075715;28;20044;-76
2023/03/17 05:09:47;;;;;;;0.90;0.90;;;6.40;99.90;;;;;;5070692;28;20044;-76
2023/03/17 05:12:13;;;;;;;0.80;0.80;;;6.40;99.90;;;;;;5069774;28;20142;-76
2023/03/17 05:14:39;;;;;;;0.82;0.82;;;6.40;99.90;;;;;;5075991;28;20493;-77
2023/03/17 05:17:06;;;;;;;0.80;0.80;;;6.30;99.90;;;;;;5070906;28;20087;-77
2023/03/17 05:19:31;;;;;;;1.00;1.00;;;6.40;99.90;;;;;;5054645;28;20051;-76
2023/03/17 05:21:57;;;;;;;1.00;1.00;;;6.30;99.90;;;;;;5053327;28;20394;-77
2023/03/17 05:24:23;;;;;;;0.90;0.90;;;6.30;99.90;;;;;;5071269;28;20040;-76
2023/03/17 05:26:49;;;;;;;1.00;1.00;;;6.30;99.90;;;;;;5072851;28;20650;-77
2023/03/17 05:29:15;;;;;;;0.90;0.90;;;6.30;99.90;;;;;;5075082;28;20850;-77
2023/03/17 05:31:41;;;;;;;0.90;0.90;;;6.30;99.90;;;;;;5055224;28;20069;-76
2023/03/17 05:34:07;;;;;;;0.90;0.90;;;6.20;99.90;;;;;;5055566;28;20060;-77
2023/03/17 05:36:33;;;;;;;1.00;1.00;;;6.20;99.90;;;;;;5074263;28;20089;-77
2023/03/17 05:38:58;;;;;;;0.90;0.90;;;6.20;99.90;;;;;;5075022;28;20109;-76
2023/03/17 05:41:25;;;;;;;0.90;0.90;;;6.20;99.90;;;;;;5050358;28;20044;-77
2023/03/17 05:43:51;;;;;;;1.00;1.00;;;6.20;99.90;;;;;;5054672;28;20047;-77
2023/03/17 05:46:17;;;;;;;1.05;1.05;;;6.30;99.90;;;;;;5070594;28;20052;-77
2023/03/17 05:48:43;;;;;;;0.88;0.88;;;6.30;99.90;;;;;;5054987;28;20122;-77
2023/03/17 05:51:08;;;;;;;0.88;0.88;;;6.30;99.90;;;;;;5069983;28;20050;-75
2023/03/17 05:53:37;;;;;;;0.90;0.90;;;6.30;99.90;;;;;;5071173;28;20491;-77
2023/03/17 05:56:03;;;;;;;0.82;0.82;;;6.30;99.90;;;;;;5056230;28;20048;-77
2023/03/17 05:58:28;;;;;;;0.90;0.90;;;6.40;99.90;;;;;;5056693;28;20876;-77
2023/03/17 06:00:55;;;;;;;0.80;0.80;;;6.40;99.90;;;;;;5065416;28;20036;-76
2023/03/17 06:03:21;;;;;;;0.90;0.90;;;6.40;99.90;;;;;;5053193;28;20567;-77
2023/03/17 06:05:52;;;;;;;0.90;0.90;;;6.40;99.90;;;;;;5051116;28;20529;-77
2023/03/17 06:08:18;;;;;;;0.82;0.82;;;6.50;99.90;;;;;;5068966;28;20077;-76
2023/03/17 06:10:44;;;;;;;0.80;0.80;;;6.50;99.90;;;;;;5048347;28;20059;-77
2023/03/17 06:13:10;;;;;;;0.80;0.80;;;6.60;99.90;;;;;;5070016;28;20409;-76
2023/03/17 06:15:36;;;;;;;0.80;0.80;;;6.60;99.90;;;;;;5073096;28;20515;-76
2023/03/17 06:18:04;;;;;;;0.80;0.80;;;6.70;99.90;;;;;;5052616;28;20068;-76
2023/03/17 06:20:31;;;;;;;0.80;0.80;;;6.80;99.90;;;;;;5051691;28;20044;-77
2023/03/17 06:22:57;;;;;;;0.80;0.80;;;6.90;99.90;;;;;;5051442;28;20055;-77
2023/03/17 06:25:22;;;;;;;0.80;0.80;;;7.10;99.90;;;;;;5053480;28;20469;-77
2023/03/17 06:27:53;;;;;;;0.80;0.80;;;7.30;99.90;;;;;;5069527;28;20048;-76
2023/03/17 06:30:19;;;;;;;0.90;0.90;;;7.50;99.90;;;;;;5060666;28;20052;-77
2023/03/17 06:32:46;;;;;;;0.70;0.70;;;7.60;99.90;;;;;;5059305;28;20075;-77
2023/03/17 06:35:12;;;;;;;0.70;0.70;;;7.80;99.90;;;;;;5061423;28;20064;-76
2023/03/17 06:37:38;;;;;;;0.80;0.80;;;7.80;99.90;;;;;;5065599;28;20648;-76
2023/03/17 06:40:08;;;;;;;0.70;0.70;;;7.90;99.90;;;;;;5044501;28;20079;-77
2023/03/17 06:42:33;;;;;;;0.80;0.80;;;8.10;99.90;;;;;;5043045;28;20044;-77
2023/03/17 06:44:59;;;;;;;0.70;0.70;;;8.30;99.90;;;;;;5064492;28;20465;-77
2023/03/17 06:47:26;;;;;;;0.77;0.77;;;8.50;99.90;;;;;;5067712;28;20512;-77
2023/03/17 06:49:52;;;;;;;0.80;0.80;;;8.70;99.90;;;;;;5044140;28;20048;-77
2023/03/17 06:52:18;;;;;;;0.80;0.80;;;8.80;99.90;;;;;;5063003;28;20051;-78
2023/03/17 06:54:43;;;;;;;0.70;0.70;;;9.00;99.90;;;;;;5061106;28;20044;-77
2023/03/17 06:57:09;;;;;;;0.73;0.73;;;9.10;99.90;;;;;;5047156;28;20052;-75
2023/03/17 06:59:35;;;;;;;0.70;0.70;;;9.30;99.90;;;;;;5065283;28;20082;-77
2023/03/17 07:02:01;;;;;;;0.70;0.70;;;9.50;99.90;;;;;;5065723;28;20127;-77
2023/03/17 07:04:27;;;;;;;0.68;0.68;;;9.70;99.90;;;;;;5066642;28;20052;-77
2023/03/17 07:06:52;;;;;;;0.70;0.70;;;9.70;99.90;;;;;;5047893;28;20052;-76
2023/03/17 07:09:18;;;;;;;0.60;0.60;;;9.70;99.90;;;;;;5062086;28;20190;-77
2023/03/17 07:11:44;;;;;;;0.60;0.60;;;9.90;99.90;;;;;;5055047;28;20043;-77
2023/03/17 07:14:09;;;;;;;0.70;0.70;;;9.90;99.90;;;;;;5061188;28;20052;-77
2023/03/17 07:16:36;;;;;;;0.63;0.63;;;9.90;99.90;;;;;;5078883;28;20791;-77
2023/03/17 07:19:02;;;;;;;0.60;0.60;;;9.80;99.90;;;;;;5079363;28;20044;-77
2023/03/17 07:21:27;;;;;;;0.73;0.73;;;9.90;99.90;;;;;;5075085;28;20577;-76
2023/03/17 07:23:53;;;;;;;0.60;0.60;;;9.90;99.90;;;;;;5080346;28;20113;-77
2023/03/17 07:26:19;;;;;;;0.70;0.70;;;9.90;99.90;;;;;;5079098;28;20040;-76
2023/03/17 07:28:45;;;;;;;0.63;0.63;;;9.90;99.90;;;;;;5062039;28;20040;-77
2023/03/17 07:31:13;;;;;;;0.60;0.60;;;9.90;99.90;;;;;;5057394;28;20140;-77
2023/03/17 07:33:39;;;;;;;0.80;0.80;;;9.90;99.90;;;;;;5055492;28;20078;-76
2023/03/17 07:36:06;;;;;;;0.60;0.60;;;10.00;99.90;;;;;;5076796;28;20853;-76
2023/03/17 07:38:33;;;;;;;0.70;0.70;;;10.00;99.90;;;;;;5062850;28;20064;-76
2023/03/17 07:40:59;;;;;;;0.70;0.70;;;10.10;99.90;;;;;;5056100;28;20398;-75
2023/03/17 07:43:25;;;;;;;0.70;0.70;;;10.10;99.90;;;;;;5073646;28;20052;-77
2023/03/17 07:45:51;;;;;;;0.80;0.80;;;10.20;99.90;;;;;;5079646;28;20044;-77
2023/03/17 07:48:17;;;;;;;0.70;0.70;;;10.30;99.90;;;;;;5079049;28;20048;-76
2023/03/17 07:50:43;;;;;;;0.70;0.70;;;10.40;99.90;;;;;;5058542;28;20043;-77
2023/03/17 07:53:09;;;;;;;0.70;0.70;;;10.50;99.90;;;;;;5079349;28;20063;-76
2023/03/17 07:55:37;;;;;;;0.70;0.70;;;10.50;99.90;;;;;;5078494;28;20067;-76
2023/03/17 07:58:03;;;;;;;0.73;0.73;;;10.60;99.90;;;;;;5078948;28;20040;-76
2023/03/17 08:00:29;;;;;;;0.70;0.70;;;10.80;99.90;;;;;;5079720;28;20723;-73
2023/03/17 08:02:55;;;;;;;0.70;0.70;;;11.00;99.90;;;;;;5078034;28;20452;-74
2023/03/17 08:05:21;;;;;;;0.77;0.77;;;11.40;99.90;;;;;;5079704;28;20070;-73
2023/03/17 08:07:47;;;;;;;0.70;0.70;;;11.70;99.90;;;;;;5064029;28;20148;-74
2023/03/17 08:10:13;;;;;;;0.70;0.70;;;11.90;99.90;;;;;;5071681;28;20056;-77
2023/03/17 08:12:40;;;;;;;0.70;0.70;;;12.10;99.90;;;;;;5077839;28;20056;-76
2023/03/17 08:15:08;;;;;;;0.80;0.80;;;12.30;99.90;;;;;;5079078;28;20043;-77
2023/03/17 08:17:35;;;;;;;0.70;0.70;;;12.40;99.90;;;;;;5078020;28;20044;-77
2023/03/17 08:20:01;;;;;;;0.80;0.80;;;12.50;99.90;;;;;;5075167;28;20044;-77
2023/03/17 08:22:27;;;;;;;0.80;0.80;;;12.60;99.90;;;;;;5060518;28;20048;-77
2023/03/17 08:24:54;;;;;;;0.70;0.70;;;12.60;99.90;;;;;;5059362;28;20072;-76
2023/03/17 08:27:21;;;;;;;0.75;0.75;;;12.50;99.90;;;;;;5078406;28;20043;-77
2023/03/17 08:29:47;;;;;;;0.75;0.75;;;12.50;99.90;;;;;;5077464;28;20521;-77
2023/03/17 08:32:13;;;;;;;0.70;0.70;;;12.50;99.90;;;;;;5077964;28;20048;-76
2023/03/17 08:34:39;;;;;;;0.70;0.70;;;12.50;99.90;;;;;;5061221;28;20055;-76
2023/03/17 08:37:06;;;;;;;0.77;0.77;;;12.60;99.90;;;;;;5076910;28;20082;-77
2023/03/17 08:39:32;;;;;;;0.82;0.82;;;12.50;99.90;;;;;;5060787;28;20051;-77
2023/03/17 08:41:58;;;;;;;0.75;0.75;;;12.60;99.90;;;;;;5078875;28;20054;-76
2023/03/17 08:44:23;;;;;;;0.82;0.82;;;12.60;99.90;;;;;;5076355;28;20638;-76
2023/03/17 08:46:50;;;;;;;0.80;0.80;;;12.70;99.90;;;;;;5079689;28;20441;-76
2023/03/17 08:49:16;;;;;;;0.80;0.80;;;12.80;99.90;;;;;;5075417;28;20051;-77
2023/03/17 08:51:43;;;;;;;0.80;0.80;;;12.80;99.90;;;;;;5060542;28;20055;-75
2023/03/17 08:54:10;;;;;;;0.85;0.85;;;12.90;99.90;;;;;;5077933;28;20097;-77
2023/03/17 08:56:38;;;;;;;0.80;0.80;;;12.90;99.90;;;;;;5077019;28;20036;-76
2023/03/17 08:59:05;;;;;;;0.80;0.80;;;12.90;99.90;;;;;;5076859;28;20432;-77
2023/03/17 09:01:31;;;;;;;0.90;0.90;;;12.90;99.90;;;;;;5059204;28;20092;-77
2023/03/17 09:03:57;;;;;;;0.90;0.90;;;12.80;99.90;;;;;;5073028;28;20044;-75
2023/03/17 09:06:24;;;;;;;0.90;0.90;;;12.90;99.90;;;;;;5068289;28;20048;-75
2023/03/17 09:08:54;;;;;;;0.90;0.90;;;12.90;99.90;;;;;;5070086;28;20556;-77
2023/03/17 09:11:22;;;;;;;1.00;1.00;;;13.10;99.90;;;;;;5066090;28;20122;-74
2023/03/17 09:13:48;;;;;;;0.90;0.90;;;13.10;99.90;;;;;;5077991;28;20150;-77
2023/03/17 09:16:15;;;;;;;0.90;0.90;;;13.20;99.90;;;;;;5059543;28;20085;-76
2023/03/17 09:18:40;;;;;;;1.00;1.00;;;13.30;99.90;;;;;;5076274;28;20051;-77
2023/03/17 09:21:07;;;;;;;0.90;0.90;;;13.30;99.90;;;;;;5053809;28;20036;-77
2023/03/17 09:23:33;;;;;;;1.00;1.00;;;13.20;99.90;;;;;;5074862;28;20062;-76
2023/03/17 09:26:00;;;;;;;0.95;0.95;;;13.40;99.90;;;;;;5075130;28;20040;-76
2023/03/17 09:28:25;;;;;;;1.02;1.02;;;13.60;99.90;;;;;;5056684;28;20500;-78
2023/03/17 09:30:51;;;;;;;0.98;0.98;;;13.90;99.90;;;;;;5073449;28;20032;-77
2023/03/17 09:33:17;;;;;;;0.90;0.90;;;14.10;99.90;;;;;;5073793;28;20050;-76
2023/03/17 09:35:43;;;;;;;0.90;0.90;;;14.60;99.90;;;;;;5059079;28;20096;-77
2023/03/17 09:38:11;;;;;;;0.90;0.90;;;14.60;99.90;;;;;;5076422;28;20051;-77
2023/03/17 09:40:52;;;;;;;0.88;0.88;;;14.80;99.90;;;;;;5058891;28;20052;-76
2023/03/17 09:43:21;;;;;;;0.80;0.80;;;14.80;99.90;;;;;;5058753;28;20075;-75
2023/03/17 09:45:47;;;;;;;0.80;0.80;;;14.80;99.90;;;;;;5077956;28;20056;-77
2023/03/17 09:48:16;;;;;;;0.77;0.77;;;15.00;99.90;;;;;;5074350;28;20042;-76
2023/03/17 09:50:57;;;;;;;0.77;0.77;;;15.20;99.90;;;;;;5058336;28;20076;-77
2023/03/17 09:53:32;;;;;;;0.90;0.90;;;15.40;99.90;;;;;;5056404;28;20098;-76
2023/03/17 09:56:03;;;;;;;0.88;0.88;;;15.40;99.90;;;;;;5078566;28;20087;-76
2023/03/17 09:58:33;;;;;;;0.88;0.88;;;15.40;99.90;;;;;;5057516;28;20382;-76
2023/03/17 10:01:02;;;;;;;0.90;0.90;;;15.60;99.90;;;;;;5042391;28;20516;-77
2023/03/17 10:03:28;;;;;;;0.90;0.90;;;15.60;99.90;;;;;;5074862;28;20044;-77
2023/03/17 10:06:15;;;;;;;0.90;0.90;;;15.70;99.90;;;;;;5077612;28;20097;-77
2023/03/17 10:09:10;;;;;;;0.95;0.95;;;15.40;99.90;;;;;;5057227;28;20119;-78
2023/03/17 10:11:41;;;;;;;1.02;1.02;;;15.20;99.90;;;;;;5075270;28;20064;-77
2023/03/17 10:14:26;;;;;;;0.98;0.98;;;15.40;99.90;;;;;;5058517;28;20090;-77
2023/03/17 10:17:10;;;;;;;;;;;15.60;99.90;;;;;;5076600;28;20051;-76
2023/03/17 10:19:47;;;;;;;1.08;1.08;;;15.60;99.90;;;;;;5072252;28;19928;-77
2023/03/17 10:22:24;;;;;;;1.05;1.05;;;15.70;99.90;;;;;;5058081;28;20813;-77
2023/03/17 10:25:02;;;;;;;0.98;0.98;;;16.20;99.90;;;;;;5057402;28;20093;-77
2023/03/17 10:27:35;;;;;;;1.00;1.00;;;16.20;99.90;;;;;;5075846;28;20044;-76
2023/03/17 10:30:00;;;;;;;0.95;0.95;;;16.50;99.90;;;;;;5058585;28;20046;-77
2023/03/17 10:32:28;;;;;;;0.93;0.93;;;16.50;99.90;;;;;;5077360;28;20044;-76
2023/03/17 10:34:56;;;;;;;1.02;1.02;;;16.50;99.90;;;;;;5076384;28;20509;-75
2023/03/17 10:37:28;;;;;;;1.15;1.15;;;16.60;99.90;;;;;;5058601;28;20059;-77
2023/03/17 10:39:56;;;;;;;1.10;1.10;;;16.80;99.90;;;;;;5071679;28;20071;-76
2023/03/17 10:42:27;;;;;;;1.25;1.25;;;16.60;99.90;;;;;;5075334;28;20772;-76
2023/03/17 10:45:16;;;;;;;1.23;1.23;;;16.70;99.90;;;;;;5076163;28;20044;-76
2023/03/17 10:47:48;;;;;;;1.30;1.30;;;16.70;99.90;;;;;;5077000;28;20123;-77
2023/03/17 10:50:20;;;;;;;1.27;1.27;;;16.70;99.90;;;;;;5053906;28;20046;-77
2023/03/17 10:52:51;;;;;;;1.23;1.23;;;16.60;99.90;;;;;;5059098;28;20056;-76
2023/03/17 10:55:20;;;;;;;1.25;1.25;;;16.40;99.90;;;;;;5072024;28;20079;-76
2023/03/17 10:58:06;;;;;;;1.45;1.38;;;16.60;99.90;;;;;;5060053;28;20155;-76
2023/03/17 11:00:35;;;;;;;1.40;1.35;;;16.80;99.90;;;;;;5072524;28;20401;-75
2023/03/17 11:03:23;;;;;;;1.40;1.35;;;17.00;99.90;;;;;;5077568;28;20806;-75
2023/03/17 11:06:05;;;;;;;1.50;1.40;;;16.80;99.90;;;;;;5075168;28;20162;-76
2023/03/17 11:08:34;;;;;;;1.45;1.40;;;17.00;99.90;;;;;;5073260;28;20135;-76
2023/03/17 11:11:04;;;;;;;1.55;1.45;;;17.40;99.90;;;;;;5057118;28;20047;-77
2023/03/17 11:13:30;;;;;;;1.48;1.40;;;17.40;99.90;;;;;;5073723;28;20055;-76
2023/03/17 11:16:21;;;;;;;1.50;1.42;;;17.30;99.90;;;;;;5059770;28;20044;-76
2023/03/17 11:18:48;;;;;;;1.40;1.35;;;17.20;99.90;;;;;;5063607;28;20091;-77
2023/03/17 11:21:30;;;;;;;1.48;1.40;;;16.90;99.90;;;;;;5073300;28;20485;-76
2023/03/17 11:24:09;;;;;;;1.40;1.35;;;17.00;99.90;;;;;;5075040;28;20506;-76
2023/03/17 11:26:43;;;;;;;1.40;1.35;;;17.00;99.90;;;;;;5054735;28;20532;-77
2023/03/17 11:29:15;;;;;;;1.40;1.35;;;16.90;99.90;;;;;;5074089;28;20477;-76
2023/03/17 11:32:08;;;;;;;1.40;1.35;;;16.90;99.90;;;;;;5075952;28;20486;-76
2023/03/17 11:34:33;;;;;;;1.25;1.25;;;16.70;99.90;;;;;;5033189;28;20127;-77
2023/03/17 11:37:26;;;;;;;1.23;1.23;;;16.20;99.90;;;;;;5077487;28;20048;-76
2023/03/17 11:40:00;;;;;;;1.27;1.27;;;16.00;99.90;;;;;;5072221;28;20537;-77
2023/03/17 11:42:47;;;;;;;1.15;1.15;;;16.00;99.90;;;;;;5074958;28;20079;-77
2023/03/17 11:45:16;;;;;;;1.20;1.20;;;16.20;99.90;;;;;;5078448;28;20028;-77
2023/03/17 11:48:10;;;;;;;1.17;1.17;;;16.20;99.90;;;;;;5080268;28;20127;-77
2023/03/17 11:51:08;;;;;;;1.13;1.13;;;16.20;99.90;;;;;;5075542;28;20102;-78
2023/03/17 11:53:37;;;;;;;1.17;1.17;;;16.30;99.90;;;;;;5077928;28;20040;-79
2023/03/17 11:56:11;;;;;;;1.17;1.17;;;16.50;99.90;;;;;;5061844;28;20050;-77
2023/03/17 11:58:47;;;;;;;1.17;1.17;;;16.40;99.90;;;;;;5079520;28;20079;-77
2023/03/17 12:01:22;;;;;;;1.10;1.10;;;16.30;99.90;;;;;;5072373;28;20047;-77
2023/03/17 12:04:03;;;;;;;1.08;1.08;;;16.40;99.90;;;;;;5078077;28;20066;-76
2023/03/17 12:06:34;;;;;;;0.98;0.98;;;16.60;99.90;;;;;;5061771;28;20075;-74
2023/03/17 12:09:12;;;;;;;1.02;1.02;;;16.60;99.90;;;;;;5078275;28;20044;-75
2023/03/17 12:11:42;;;;;;;1.05;1.05;;;16.60;99.90;;;;;;5075621;28;20046;-77
2023/03/17 12:14:32;;;;;;;1.02;1.02;;;16.40;99.90;;;;;;5076718;28;20044;-76
2023/03/17 12:17:08;;;;;;;1.00;1.00;;;16.40;99.90;;;;;;5079682;28;20516;-78
2023/03/17 12:19:57;;;;;;;0.98;0.98;;;16.50;99.90;;;;;;5077317;28;20089;-77
2023/03/17 12:22:41;;;;;;;1.10;1.10;;;16.40;99.90;;;;;;5078415;28;20044;-77
2023/03/17 12:25:10;;;;;;;;;;;16.50;99.90;;;;;;5060167;28;20048;-76
2023/03/17 12:27:43;;;;;;;0.93;0.93;;;16.40;99.90;;;;;;5076807;28;20329;-76
2023/03/17 12:31:01;;;;;;;1.00;1.00;;;16.60;99.90;;;;;;5059433;28;20452;-77
2023/03/17 12:33:42;;;;;;;1.00;1.00;;;16.60;99.90;;;;;;5035975;28;20067;-75
2023/03/17 12:36:13;;;;;;;0.90;0.90;;;16.50;99.90;;;;;;5062014;28;20048;-75
2023/03/17 12:39:04;;;;;;;0.90;0.90;;;16.40;99.90;;;;;;5078398;28;20066;-75
2023/03/17 12:41:41;;;;;;;0.90;0.90;;;16.50;99.90;;;;;;5077159;28;20051;-75
2023/03/17 12:44:13;;;;;;;0.93;0.93;;;16.60;99.90;;;;;;5059422;28;20405;-75
2023/03/17 12:46:39;;;;;;;0.88;0.88;;;16.70;99.90;;;;;;5079645;28;20047;-75
2023/03/17 12:49:26;;;;;;;0.85;0.85;;;16.70;99.90;;;;;;5077797;28;20120;-75
2023/03/17 12:52:27;;;;;;;0.90;0.90;;;16.70;99.90;;;;;;5077687;28;20622;-76
2023/03/17 12:54:53;;;;;;;0.77;0.77;;;16.90;99.90;;;;;;5075749;28;20357;-75
2023/03/17 12:57:21;;;;;;;0.75;0.75;;;16.90;99.90;;;;;;5076547;28;20048;-75
2023/03/17 12:59:59;;;;;;;0.82;0.82;;;17.00;99.90;;;;;;5076420;28;20699;-75
2023/03/17 13:02:28;;;;;;;0.80;0.80;;;17.30;99.90;;;;;;5076119;28;20048;-75